createdAt,value
2022-08-28T00:01:24.669Z,17.61
2022-08-28T00:03:51.194Z,17.62
2022-08-28T00:06:17.745Z,17.60
2022-08-28T00:08:44.381Z,17.62
2022-08-28T00:11:10.973Z,17.63
2022-08-28T00:13:37.993Z,17.60
2022-08-28T00:16:06.768Z,17.65
2022-08-28T00:18:33.562Z,17.65
2022-08-28T00:21:01.255Z,17.67
2022-08-28T00:23:42.319Z,17.70
2022-08-28T00:26:09.912Z,17.70
2022-08-28T00:28:36.438Z,17.76
2022-08-28T00:31:03.131Z,17.79
2022-08-28T00:33:33.879Z,17.78
2022-08-28T00:36:01.170Z,17.70
2022-08-28T00:38:28.973Z,17.73
2022-08-28T00:40:57.973Z,17.75
2022-08-28T00:43:34.373Z,17.68
2022-08-28T00:46:02.065Z,17.71
2022-08-28T00:48:28.866Z,17.70
2022-08-28T00:51:00.790Z,17.69
2022-08-28T00:53:29.015Z,17.65
2022-08-28T00:55:59.070Z,17.70
2022-08-28T00:58:25.611Z,17.67
2022-08-28T01:00:52.175Z,17.63
2022-08-28T01:03:18.706Z,17.63
2022-08-28T01:05:45.353Z,17.66
2022-08-28T01:08:13.582Z,17.64
2022-08-28T01:10:43.762Z,17.66
2022-08-28T01:13:11.199Z,17.63
2022-08-28T01:15:39.425Z,17.65
2022-08-28T01:18:08.826Z,17.65
2022-08-28T01:20:38.642Z,17.68
2022-08-28T01:23:12.682Z,17.68
2022-08-28T01:25:41.308Z,17.67
2022-08-28T01:28:10.923Z,17.67
2022-08-28T01:30:38.473Z,17.60
2022-08-28T01:33:05.164Z,17.59
2022-08-28T01:35:35.284Z,17.57
2022-08-28T01:38:02.234Z,17.58
2022-08-28T01:40:31.884Z,17.59
2022-08-28T01:43:08.596Z,17.50
2022-08-28T01:45:36.434Z,17.53
2022-08-28T01:48:03.942Z,17.53
2022-08-28T01:50:31.906Z,17.47
2022-08-28T01:52:58.453Z,17.52
2022-08-28T01:55:25.069Z,17.54
2022-08-28T01:57:54.419Z,17.48
2022-08-28T02:00:23.130Z,17.53
2022-08-28T02:02:49.699Z,17.51
2022-08-28T02:05:16.229Z,17.51
2022-08-28T02:07:42.758Z,17.45
2022-08-28T02:10:09.455Z,17.48
2022-08-28T02:12:36.309Z,17.51
2022-08-28T02:15:03.422Z,17.49
2022-08-28T02:17:31.308Z,17.51
2022-08-28T02:19:57.830Z,17.54
2022-08-28T02:22:24.497Z,17.46
2022-08-28T02:24:51.177Z,17.48
2022-08-28T02:27:17.791Z,17.50
2022-08-28T02:29:44.343Z,17.48
2022-08-28T02:32:11.299Z,17.48
2022-08-28T02:34:39.409Z,17.50
2022-08-28T02:37:05.964Z,17.46
2022-08-28T02:39:32.469Z,17.49
2022-08-28T02:41:59.006Z,17.52
2022-08-28T02:44:25.558Z,17.44
2022-08-28T02:46:52.074Z,17.46
2022-08-28T02:49:20.629Z,17.51
2022-08-28T02:51:48.499Z,17.53
2022-08-28T02:54:15.069Z,17.52
2022-08-28T02:56:45.118Z,17.53
2022-08-28T02:59:11.667Z,17.53
2022-08-28T03:01:38.225Z,17.53
2022-08-28T03:04:05.052Z,17.48
2022-08-28T03:06:32.489Z,17.45
2022-08-28T03:09:00.377Z,17.46
2022-08-28T03:11:27.144Z,17.42
2022-08-28T03:13:53.970Z,17.42
2022-08-28T03:16:20.584Z,17.42
2022-08-28T03:22:15.221Z,17.38
2022-08-28T03:24:43.277Z,17.36
2022-08-28T03:27:09.834Z,17.33
2022-08-28T03:29:36.551Z,17.33
2022-08-28T03:32:03.570Z,17.35
2022-08-28T03:34:30.150Z,17.30
2022-08-28T03:36:56.704Z,17.34
2022-08-28T03:39:23.274Z,17.31
2022-08-28T03:41:51.193Z,17.33
2022-08-28T03:44:17.760Z,17.36
2022-08-28T03:46:44.324Z,17.37
2022-08-28T03:49:11.442Z,17.32
2022-08-28T03:51:40.428Z,17.28
2022-08-28T03:54:06.994Z,17.25
2022-08-28T03:56:33.695Z,17.25
2022-08-28T03:59:03.762Z,17.28
2022-08-28T04:01:30.967Z,17.24
2022-08-28T04:03:57.597Z,17.28
2022-08-28T04:06:24.245Z,17.22
2022-08-28T04:08:51.114Z,17.24
2022-08-28T04:11:18.059Z,17.26
2022-08-28T04:13:45.024Z,17.26
2022-08-28T04:16:14.737Z,17.24
2022-08-28T04:18:43.135Z,17.28
2022-08-28T04:21:11.777Z,17.27
2022-08-28T04:23:40.040Z,17.26
2022-08-28T04:26:07.296Z,17.25
2022-08-28T04:28:34.980Z,17.26
2022-08-28T04:31:01.758Z,17.23
2022-08-28T04:33:30.770Z,17.30
2022-08-28T04:35:57.440Z,17.33
2022-08-28T04:38:24.105Z,17.36
2022-08-28T04:40:50.702Z,17.31
2022-08-28T04:43:17.341Z,17.38
2022-08-28T04:45:45.859Z,17.35
2022-08-28T04:48:14.010Z,17.38
2022-08-28T04:50:43.114Z,17.43
2022-08-28T04:53:10.585Z,17.45
2022-08-28T04:55:54.425Z,17.46
2022-08-28T04:58:23.694Z,17.47
2022-08-28T05:00:52.787Z,17.39
2022-08-28T05:03:19.661Z,17.48
2022-08-28T05:05:50.076Z,17.50
2022-08-28T05:08:18.632Z,17.52
2022-08-28T05:10:45.508Z,17.56
2022-08-28T05:13:13.774Z,17.65
2022-08-28T05:15:40.658Z,17.69
2022-08-28T05:18:07.955Z,17.70
2022-08-28T05:20:35.682Z,17.74
2022-08-28T05:23:03.955Z,17.81
2022-08-28T05:25:30.626Z,17.82
2022-08-28T05:27:57.169Z,17.87
2022-08-28T05:30:23.771Z,17.91
2022-08-28T05:32:50.323Z,17.95
2022-08-28T05:35:16.964Z,17.99
2022-08-28T05:37:45.225Z,18.03
2022-08-28T05:40:13.414Z,18.05
2022-08-28T05:42:40.006Z,18.08
2022-08-28T05:45:07.960Z,18.05
2022-08-28T05:47:34.545Z,18.10
2022-08-28T05:50:01.123Z,18.14
2022-08-28T05:52:27.670Z,18.24
2022-08-28T05:54:54.274Z,18.30
2022-08-28T05:57:22.187Z,18.43
2022-08-28T05:59:49.011Z,18.51
2022-08-28T06:02:15.633Z,18.49
2022-08-28T06:04:42.252Z,18.56
2022-08-28T06:07:08.803Z,18.59
2022-08-28T06:09:35.378Z,18.68
2022-08-28T06:12:02.215Z,18.72
2022-08-28T06:14:31.713Z,18.82
2022-08-28T06:16:59.724Z,18.73
2022-08-28T06:19:27.794Z,18.75
2022-08-28T06:21:55.405Z,18.79
2022-08-28T06:24:21.990Z,18.82
2022-08-28T06:26:48.575Z,18.87
2022-08-28T06:29:16.720Z,19.01
2022-08-28T06:31:45.142Z,19.06
2022-08-28T06:34:12.345Z,19.18
2022-08-28T06:36:41.355Z,19.20
2022-08-28T06:39:09.922Z,19.38
2022-08-28T06:41:36.896Z,19.42
2022-08-28T06:44:03.628Z,19.23
2022-08-28T06:46:30.202Z,19.20
2022-08-28T06:48:58.133Z,19.19
2022-08-28T06:51:25.044Z,19.24
2022-08-28T06:53:52.164Z,19.28
2022-08-28T06:56:26.038Z,19.36
2022-08-28T06:58:55.254Z,19.49
2022-08-28T07:01:24.787Z,19.05
2022-08-28T07:03:53.503Z,19.09
2022-08-28T07:06:22.869Z,19.31
2022-08-28T07:08:50.265Z,19.49
2022-08-28T07:11:19.810Z,19.60
2022-08-28T07:13:46.752Z,19.94
2022-08-28T07:16:15.768Z,19.91
2022-08-28T07:18:42.673Z,20.00
2022-08-28T07:21:12.439Z,19.97
2022-08-28T07:23:43.622Z,20.09
2022-08-28T07:26:12.853Z,20.28
2022-08-28T07:28:39.471Z,20.44
2022-08-28T07:31:08.558Z,20.37
2022-08-28T07:33:36.619Z,20.50
2022-08-28T07:36:06.332Z,20.87
2022-08-28T07:38:33.154Z,20.67
2022-08-28T07:41:01.407Z,20.89
2022-08-28T07:43:27.967Z,20.68
2022-08-28T07:45:58.368Z,20.83
2022-08-28T07:48:25.030Z,21.18
2022-08-28T07:50:51.710Z,21.67
2022-08-28T07:53:18.273Z,22.11
2022-08-28T07:55:44.869Z,21.87
2022-08-28T07:58:13.090Z,21.78
2022-08-28T08:00:39.783Z,21.62
2022-08-28T08:03:06.407Z,22.02
2022-08-28T08:05:33.022Z,21.80
2022-08-28T08:07:59.569Z,21.65
2022-08-28T08:10:26.150Z,21.56
2022-08-28T08:13:00.495Z,21.70
2022-08-28T08:15:31.362Z,21.63
2022-08-28T08:17:58.087Z,21.41
2022-08-28T08:20:24.667Z,21.62
2022-08-28T08:22:51.223Z,21.46
2022-08-28T08:25:17.886Z,21.43
2022-08-28T08:27:44.436Z,21.38
2022-08-28T08:30:12.092Z,21.53
2022-08-28T08:32:40.014Z,21.63
2022-08-28T08:35:07.126Z,21.64
2022-08-28T08:37:33.682Z,21.78
2022-08-28T08:40:00.429Z,21.63
2022-08-28T08:42:30.266Z,21.77
2022-08-28T08:44:59.360Z,21.81
2022-08-28T08:47:33.726Z,21.56
2022-08-28T08:50:04.950Z,21.46
2022-08-28T08:52:37.874Z,21.30
2022-08-28T08:55:16.493Z,21.40
2022-08-28T08:57:49.121Z,21.36
2022-08-28T09:00:17.223Z,21.33
2022-08-28T09:02:48.127Z,21.16
2022-08-28T09:05:20.635Z,21.40
2022-08-28T09:07:53.659Z,21.43
2022-08-28T09:10:20.476Z,21.45
2022-08-28T09:12:55.277Z,21.46
2022-08-28T09:15:28.634Z,21.74
2022-08-28T09:18:10.500Z,21.72
2022-08-28T09:20:38.894Z,21.88
2022-08-28T09:23:13.468Z,22.06
2022-08-28T09:25:52.942Z,22.25
2022-08-28T09:28:23.105Z,22.15
2022-08-28T09:30:57.393Z,22.36
2022-08-28T09:33:41.715Z,22.20
2022-08-28T09:36:32.792Z,22.50
2022-08-28T09:39:08.939Z,22.75
2022-08-28T09:41:38.506Z,22.76
2022-08-28T09:44:05.104Z,22.37
2022-08-28T09:46:32.570Z,22.48
2022-08-28T09:49:08.722Z,22.28
2022-08-28T09:51:36.667Z,22.34
2022-08-28T09:54:10.369Z,22.38
2022-08-28T09:56:40.511Z,22.60
2022-08-28T09:59:09.268Z,22.65
2022-08-28T10:01:53.256Z,22.85
2022-08-28T10:04:37.530Z,22.77
2022-08-28T10:07:13.046Z,22.79
2022-08-28T10:09:46.943Z,22.77
2022-08-28T10:12:26.492Z,22.89
2022-08-28T10:15:00.673Z,22.77
2022-08-28T10:17:40.451Z,22.89
2022-08-28T10:20:13.552Z,23.02
2022-08-28T10:22:48.525Z,22.78
2022-08-28T10:25:22.030Z,22.76
2022-08-28T10:28:01.019Z,22.93
2022-08-28T10:30:31.271Z,22.85
2022-08-28T10:33:23.356Z,22.88
2022-08-28T10:35:55.256Z,22.95
2022-08-28T10:38:36.675Z,23.31
2022-08-28T10:41:08.490Z,23.68
2022-08-28T10:43:38.653Z,23.52
2022-08-28T10:46:10.540Z,23.43
2022-08-28T10:48:43.404Z,22.99
2022-08-28T10:51:17.367Z,22.94
2022-08-28T10:53:51.750Z,22.92
2022-08-28T10:56:23.051Z,22.54
2022-08-28T10:58:54.663Z,22.59
2022-08-28T11:01:25.728Z,22.89
2022-08-28T11:03:52.435Z,22.97
2022-08-28T11:06:27.725Z,23.11
2022-08-28T11:08:57.756Z,23.14
2022-08-28T11:11:46.419Z,23.23
2022-08-28T11:14:24.289Z,23.04
2022-08-28T11:16:52.103Z,23.10
2022-08-28T11:20:09.509Z,22.99
2022-08-28T11:22:40.509Z,23.33
2022-08-28T11:25:17.150Z,23.54
2022-08-28T11:28:12.323Z,23.70
2022-08-28T11:30:39.093Z,23.66
2022-08-28T11:33:08.954Z,23.62
2022-08-28T11:35:42.647Z,23.44
2022-08-28T11:38:09.627Z,23.48
2022-08-28T11:40:56.617Z,23.91
2022-08-28T11:43:37.365Z,23.77
2022-08-28T11:46:26.756Z,23.98
2022-08-28T11:48:55.765Z,23.96
2022-08-28T11:51:48.790Z,24.23
2022-08-28T11:54:26.184Z,23.87
2022-08-28T11:57:05.974Z,24.08
2022-08-28T11:59:53.678Z,23.92
2022-08-28T12:02:52.760Z,23.70
2022-08-28T12:05:38.871Z,23.96
2022-08-28T12:08:05.474Z,24.18
2022-08-28T12:10:55.336Z,24.38
2022-08-28T12:13:46.723Z,24.09
2022-08-28T12:16:13.578Z,24.21
2022-08-28T12:19:02.878Z,24.05
2022-08-28T12:21:35.266Z,24.19
2022-08-28T12:24:09.974Z,24.05
2022-08-28T12:26:46.628Z,23.86
2022-08-28T12:29:28.031Z,23.65
2022-08-28T12:32:18.732Z,23.69
2022-08-28T12:34:49.788Z,23.69
2022-08-28T12:37:51.503Z,23.97
2022-08-28T12:40:21.964Z,24.28
2022-08-28T12:42:55.199Z,24.24
2022-08-28T12:45:27.577Z,24.33
2022-08-28T12:47:57.910Z,24.17
2022-08-28T12:50:28.396Z,24.18
2022-08-28T12:52:58.126Z,24.06
2022-08-28T12:55:25.467Z,24.13
2022-08-28T12:57:52.944Z,24.15
2022-08-28T13:00:22.468Z,24.12
2022-08-28T13:02:52.712Z,24.01
2022-08-28T13:05:29.543Z,24.02
2022-08-28T13:07:56.899Z,24.32
2022-08-28T13:10:26.649Z,24.41
2022-08-28T13:12:59.801Z,24.46
2022-08-28T13:15:48.536Z,24.29
2022-08-28T13:18:47.415Z,24.12
2022-08-28T13:21:33.379Z,24.14
2022-08-28T13:24:27.669Z,24.32
2022-08-28T13:27:02.934Z,24.27
2022-08-28T13:29:30.296Z,24.24
2022-08-28T13:31:58.966Z,24.36
2022-08-28T13:34:28.046Z,24.32
2022-08-28T13:36:56.456Z,24.40
2022-08-28T13:39:23.028Z,24.36
2022-08-28T13:41:53.297Z,24.57
2022-08-28T13:44:28.162Z,24.68
2022-08-28T13:46:54.761Z,24.80
2022-08-28T13:49:21.425Z,24.87
2022-08-28T13:51:48.228Z,24.96
2022-08-28T13:54:15.102Z,24.95
2022-08-28T13:56:42.936Z,25.24
2022-08-28T13:59:10.962Z,24.58
2022-08-28T14:01:42.263Z,24.84
2022-08-28T14:04:08.867Z,24.79
2022-08-28T14:06:35.465Z,24.99
2022-08-28T14:09:02.059Z,24.91
2022-08-28T14:11:28.579Z,25.02
2022-08-28T14:13:55.975Z,25.10
2022-08-28T14:16:25.391Z,24.78
2022-08-28T14:18:52.582Z,24.92
2022-08-28T14:21:19.168Z,24.79
2022-08-28T14:23:45.710Z,24.82
2022-08-28T14:26:12.260Z,24.53
2022-08-28T14:28:38.788Z,24.48
2022-08-28T14:31:05.938Z,24.23
2022-08-28T14:33:36.882Z,24.22
2022-08-28T14:36:03.761Z,24.49
2022-08-28T14:38:30.363Z,24.50
2022-08-28T14:40:56.905Z,24.65
2022-08-28T14:43:24.033Z,24.50
2022-08-28T14:45:50.835Z,24.45
2022-08-28T14:48:18.597Z,24.51
2022-08-28T14:50:49.119Z,24.47
2022-08-28T14:53:16.313Z,24.28
2022-08-28T14:55:46.208Z,24.37
2022-08-28T14:58:14.365Z,24.40
2022-08-28T15:00:43.061Z,24.56
2022-08-28T15:03:09.779Z,24.66
2022-08-28T15:05:36.323Z,24.59
2022-08-28T15:08:07.066Z,24.59
2022-08-28T15:10:34.003Z,24.72
2022-08-28T15:13:00.565Z,24.77
2022-08-28T15:15:27.113Z,24.94
2022-08-28T15:17:53.662Z,24.79
2022-08-28T15:20:20.232Z,24.54
2022-08-28T15:22:46.779Z,24.53
2022-08-28T15:25:14.691Z,24.43
2022-08-28T15:27:41.272Z,24.39
2022-08-28T15:30:08.846Z,24.53
2022-08-28T15:32:35.529Z,24.47
2022-08-28T15:35:02.090Z,24.29
2022-08-28T15:37:28.643Z,24.14
2022-08-28T15:39:58.219Z,24.07
2022-08-28T15:42:26.165Z,24.04
2022-08-28T15:44:56.239Z,23.96
2022-08-28T15:47:24.262Z,23.88
2022-08-28T15:49:54.970Z,23.93
2022-08-28T15:52:22.378Z,23.77
2022-08-28T15:54:49.254Z,23.94
2022-08-28T15:57:16.088Z,23.98
2022-08-28T15:59:50.039Z,24.07
2022-08-28T16:02:18.032Z,24.03
2022-08-28T16:04:44.633Z,24.00
2022-08-28T16:07:11.199Z,23.90
2022-08-28T16:09:37.794Z,23.78
2022-08-28T16:12:04.901Z,23.70
2022-08-28T16:14:31.890Z,23.87
2022-08-28T16:17:00.008Z,23.86
2022-08-28T16:19:32.858Z,23.93
2022-08-28T16:21:59.412Z,23.58
2022-08-28T16:24:26.048Z,23.60
2022-08-28T16:26:52.578Z,23.69
2022-08-28T16:29:19.152Z,23.49
2022-08-28T16:31:47.625Z,23.30
2022-08-28T16:34:15.605Z,23.37
2022-08-28T16:36:46.300Z,23.13
2022-08-28T16:39:12.851Z,23.11
2022-08-28T16:41:39.474Z,23.10
2022-08-28T16:44:06.035Z,22.78
2022-08-28T16:46:32.995Z,22.79
2022-08-28T16:48:59.605Z,22.68
2022-08-28T16:51:27.527Z,22.41
2022-08-28T16:53:54.550Z,22.29
2022-08-28T16:56:21.584Z,22.40
2022-08-28T16:58:48.167Z,22.32
2022-08-28T17:01:19.656Z,22.30
2022-08-28T17:03:48.532Z,22.20
2022-08-28T17:06:19.319Z,22.09
2022-08-28T17:08:47.396Z,21.99
2022-08-28T17:11:14.113Z,22.01
2022-08-28T17:13:56.040Z,22.02
2022-08-28T17:16:23.835Z,22.07
2022-08-28T17:18:52.582Z,22.09
2022-08-28T17:21:19.682Z,21.98
2022-08-28T17:23:47.650Z,21.96
2022-08-28T17:26:14.550Z,21.87
2022-08-28T17:28:41.207Z,21.78
2022-08-28T17:31:07.817Z,21.66
2022-08-28T17:33:35.817Z,21.44
2022-08-28T17:36:03.064Z,21.41
2022-08-28T17:38:29.985Z,21.31
2022-08-28T17:40:57.868Z,21.15
2022-08-28T17:43:24.428Z,20.99
2022-08-28T17:45:50.964Z,20.94
2022-08-28T17:48:17.545Z,20.86
2022-08-28T17:50:44.118Z,20.73
2022-08-28T17:53:10.651Z,20.68
2022-08-28T17:55:37.219Z,20.55
2022-08-28T17:58:05.296Z,20.59
2022-08-28T18:00:31.851Z,20.51
2022-08-28T18:02:58.411Z,20.48
2022-08-28T18:05:25.233Z,20.38
2022-08-28T18:07:51.780Z,20.32
2022-08-28T18:10:18.951Z,20.23
2022-08-28T18:12:45.484Z,20.12
2022-08-28T18:15:13.870Z,20.03
2022-08-28T18:17:41.726Z,19.98
2022-08-28T18:20:10.706Z,19.94
2022-08-28T18:22:37.997Z,19.84
2022-08-28T18:25:05.965Z,19.74
2022-08-28T18:27:32.499Z,19.59
2022-08-28T18:29:59.048Z,19.54
2022-08-28T18:32:26.896Z,19.51
2022-08-28T18:34:53.427Z,19.47
2022-08-28T18:37:19.932Z,19.41
2022-08-28T18:39:46.442Z,19.41
2022-08-28T18:42:12.941Z,19.41
2022-08-28T18:44:39.457Z,19.35
2022-08-28T18:47:06.061Z,19.35
2022-08-28T18:49:33.950Z,19.32
2022-08-28T18:52:00.498Z,19.30
2022-08-28T18:54:27.878Z,19.30
2022-08-28T18:56:57.361Z,19.22
2022-08-28T18:59:28.104Z,19.21
2022-08-28T19:01:54.748Z,19.17
2022-08-28T19:04:21.374Z,19.15
2022-08-28T19:06:49.290Z,19.18
2022-08-28T19:09:19.360Z,19.13
2022-08-28T19:11:47.512Z,19.12
2022-08-28T19:14:14.063Z,19.09
2022-08-28T19:16:40.678Z,19.10
2022-08-28T19:19:07.237Z,19.06
2022-08-28T19:21:35.612Z,19.00
2022-08-28T19:24:03.827Z,19.00
2022-08-28T19:26:31.218Z,18.95
2022-08-28T19:28:58.001Z,18.95
2022-08-28T19:31:26.014Z,18.85
2022-08-28T19:33:53.239Z,18.79
2022-08-28T19:36:20.099Z,18.75
2022-08-28T19:38:46.773Z,18.70
2022-08-28T19:41:14.846Z,18.63
2022-08-28T19:43:44.126Z,18.60
2022-08-28T19:46:19.281Z,18.56
2022-08-28T19:48:47.055Z,18.52
2022-08-28T19:51:17.640Z,18.49
2022-08-28T19:53:56.089Z,18.45
2022-08-28T19:56:25.799Z,18.38
2022-08-28T19:58:52.923Z,18.30
2022-08-28T20:01:19.485Z,18.19
2022-08-28T20:03:46.091Z,18.10
2022-08-28T20:06:12.652Z,18.05
2022-08-28T20:08:39.217Z,18.00
2022-08-28T20:11:06.014Z,17.97
2022-08-28T20:13:33.891Z,17.88
2022-08-28T20:16:03.359Z,17.82
2022-08-28T20:18:29.939Z,17.76
2022-08-28T20:20:56.537Z,17.69
2022-08-28T20:23:23.124Z,17.67
2022-08-28T20:25:51.067Z,17.68
2022-08-28T20:28:18.556Z,17.59
2022-08-28T20:30:46.827Z,17.57
2022-08-28T20:33:13.525Z,17.53
2022-08-28T20:35:40.107Z,17.48
2022-08-28T20:38:06.846Z,17.48
2022-08-28T20:40:33.468Z,17.46
2022-08-28T20:43:00.100Z,17.46
2022-08-28T20:45:26.685Z,17.40
2022-08-28T20:47:54.646Z,17.37
2022-08-28T20:50:21.293Z,17.34
2022-08-28T20:52:47.846Z,17.28
2022-08-28T20:55:14.387Z,17.17
2022-08-28T20:57:41.358Z,17.14
2022-08-28T21:00:09.676Z,17.11
2022-08-28T21:02:37.306Z,17.08
2022-08-28T21:05:06.131Z,17.14
2022-08-28T21:07:32.796Z,17.12
2022-08-28T21:10:06.119Z,17.08
2022-08-28T21:12:34.159Z,17.12
2022-08-28T21:15:00.931Z,17.12
2022-08-28T21:17:29.448Z,17.16
2022-08-28T21:19:57.708Z,17.15
2022-08-28T21:22:25.628Z,17.14
2022-08-28T21:24:52.183Z,17.19
2022-08-28T21:27:18.841Z,17.21
2022-08-28T21:29:45.729Z,17.23
2022-08-28T21:32:12.437Z,17.25
2022-08-28T21:34:38.993Z,17.28
2022-08-28T21:37:05.678Z,17.28
2022-08-28T21:39:34.331Z,17.28
2022-08-28T21:42:00.916Z,17.27
2022-08-28T21:44:27.531Z,17.23
2022-08-28T21:46:54.065Z,17.21
2022-08-28T21:49:20.671Z,17.25
2022-08-28T21:51:47.187Z,17.26
2022-08-28T21:54:13.939Z,17.26
2022-08-28T21:56:42.171Z,17.23
2022-08-28T21:59:08.760Z,17.28
2022-08-28T22:01:35.431Z,17.29
2022-08-28T22:04:02.583Z,17.28
2022-08-28T22:06:29.403Z,17.28
2022-08-28T22:08:56.694Z,17.24
2022-08-28T22:11:24.875Z,17.24
2022-08-28T22:13:53.672Z,17.26
2022-08-28T22:16:21.122Z,17.27
2022-08-28T22:18:47.782Z,17.27
2022-08-28T22:21:17.091Z,17.29
2022-08-28T22:23:45.482Z,17.31
2022-08-28T22:26:15.356Z,17.30
2022-08-28T22:28:42.198Z,17.31
2022-08-28T22:31:10.649Z,17.31
2022-08-28T22:33:37.480Z,17.33
2022-08-28T22:36:04.638Z,17.37
2022-08-28T22:38:31.532Z,17.32
2022-08-28T22:40:58.093Z,17.38
2022-08-28T22:43:24.839Z,17.39
2022-08-28T22:45:51.446Z,17.39
2022-08-28T22:48:19.567Z,17.42
2022-08-28T22:50:47.063Z,17.41
2022-08-28T22:53:14.468Z,17.33
2022-08-28T22:55:43.529Z,17.37
2022-08-28T22:58:11.027Z,17.37
2022-08-28T23:00:40.389Z,17.29
2022-08-28T23:03:07.074Z,17.31
2022-08-28T23:05:35.268Z,17.31
2022-08-28T23:08:02.021Z,17.36
2022-08-28T23:10:55.385Z,17.37
2022-08-28T23:13:15.149Z,17.39
2022-08-28T23:15:42.329Z,17.39
2022-08-28T23:18:09.557Z,17.37
2022-08-28T23:20:37.547Z,17.37
2022-08-28T23:23:04.105Z,17.41
2022-08-28T23:25:30.681Z,17.45
2022-08-28T23:27:57.246Z,17.43
2022-08-28T23:30:24.923Z,17.41
2022-08-28T23:32:53.056Z,17.39
2022-08-28T23:35:20.369Z,17.39
2022-08-28T23:37:51.990Z,17.39
2022-08-28T23:40:20.464Z,17.42
2022-08-28T23:42:47.177Z,17.42
2022-08-28T23:45:16.877Z,17.42
2022-08-28T23:47:43.578Z,17.40
2022-08-28T23:50:14.118Z,17.38
2022-08-28T23:52:43.002Z,17.36
2022-08-28T23:55:12.622Z,17.35
2022-08-28T23:57:39.424Z,17.34
